Terminal Aerodrome Forecast
Issued by NWS Shreveport, LA

Home | Current Version | Previous Version | Text Only | Print | Product List | Glossary On
Versions: 1 2 3 4 5 6 7 8 9 10 11 12 13
000
FTUS44 KSHV 192300
TAFMLU
TAF
KMLU 192340Z 2000/2024 04006KT P6SM BKN008 OVC100
      TEMPO 2001/2004 4SM BR
     FM200400 03005KT 4SM BR OVC007
     FM201600 03006KT 6SM BR BKN007 OVC012
     FM201800 03006KT P6SM BKN015
     FM202000 04006KT P6SM BKN025=

USA.gov is the U.S. government's official web portal to all federal, state and local government web resources and services.